sensor_id;sensor_type;location;lat;lon;timestamp;P1;durP1;ratioP1;P2;durP2;ratioP2
41297;SDS011;27381;46.032;13.650;2022-10-19T00:02:14;15.18;;;9.70;;
41297;SDS011;27381;46.032;13.650;2022-10-19T00:04:41;18.88;;;10.30;;
41297;SDS011;27381;46.032;13.650;2022-10-19T00:07:07;17.35;;;10.15;;
41297;SDS011;27381;46.032;13.650;2022-10-19T00:09:32;23.63;;;10.70;;
41297;SDS011;27381;46.032;13.650;2022-10-19T00:11:58;28.77;;;9.93;;
41297;SDS011;27381;46.032;13.650;2022-10-19T00:14:23;16.55;;;8.75;;
41297;SDS011;27381;46.032;13.650;2022-10-19T00:16:49;19.13;;;9.25;;
41297;SDS011;27381;46.032;13.650;2022-10-19T00:19:19;15.30;;;9.40;;
41297;SDS011;27381;46.032;13.650;2022-10-19T00:21:45;16.23;;;8.82;;
41297;SDS011;27381;46.032;13.650;2022-10-19T00:24:11;15.27;;;8.80;;
41297;SDS011;27381;46.032;13.650;2022-10-19T00:26:36;17.60;;;8.85;;
41297;SDS011;27381;46.032;13.650;2022-10-19T00:29:02;17.88;;;9.27;;
41297;SDS011;27381;46.032;13.650;2022-10-19T00:31:28;19.55;;;9.25;;
41297;SDS011;27381;46.032;13.650;2022-10-19T00:33:54;18.98;;;8.25;;
41297;SDS011;27381;46.032;13.650;2022-10-19T00:36:21;12.77;;;7.72;;
41297;SDS011;27381;46.032;13.650;2022-10-19T00:38:47;18.88;;;9.27;;
41297;SDS011;27381;46.032;13.650;2022-10-19T00:41:13;16.90;;;7.93;;
41297;SDS011;27381;46.032;13.650;2022-10-19T00:43:49;19.40;;;8.80;;
41297;SDS011;27381;46.032;13.650;2022-10-19T00:46:15;18.92;;;9.20;;
41297;SDS011;27381;46.032;13.650;2022-10-19T00:48:40;16.10;;;9.32;;
41297;SDS011;27381;46.032;13.650;2022-10-19T00:51:06;14.77;;;8.80;;
41297;SDS011;27381;46.032;13.650;2022-10-19T00:53:31;19.23;;;9.70;;
41297;SDS011;27381;46.032;13.650;2022-10-19T00:55:57;14.02;;;8.68;;
41297;SDS011;27381;46.032;13.650;2022-10-19T00:58:24;15.93;;;10.32;;
41297;SDS011;27381;46.032;13.650;2022-10-19T01:00:49;15.45;;;8.43;;
41297;SDS011;27381;46.032;13.650;2022-10-19T01:03:15;20.70;;;8.27;;
41297;SDS011;27381;46.032;13.650;2022-10-19T01:05:40;18.65;;;9.07;;
41297;SDS011;27381;46.032;13.650;2022-10-19T01:08:06;17.02;;;8.88;;
41297;SDS011;27381;46.032;13.650;2022-10-19T01:10:40;23.67;;;11.38;;
41297;SDS011;27381;46.032;13.650;2022-10-19T01:18:03;19.92;;;10.93;;
41297;SDS011;27381;46.032;13.650;2022-10-19T01:31:13;16.83;;;9.23;;
41297;SDS011;27381;46.032;13.650;2022-10-19T01:39:02;14.25;;;8.40;;
41297;SDS011;27381;46.032;13.650;2022-10-19T01:42:02;15.75;;;8.48;;
41297;SDS011;27381;46.032;13.650;2022-10-19T01:47:19;16.35;;;8.68;;
41297;SDS011;27381;46.032;13.650;2022-10-19T01:49:48;23.92;;;9.55;;
41297;SDS011;27381;46.032;13.650;2022-10-19T01:52:14;13.43;;;7.53;;
41297;SDS011;27381;46.032;13.650;2022-10-19T01:54:43;13.15;;;7.93;;
41297;SDS011;27381;46.032;13.650;2022-10-19T01:57:10;13.50;;;8.10;;
41297;SDS011;27381;46.032;13.650;2022-10-19T01:59:36;14.60;;;7.85;;
41297;SDS011;27381;46.032;13.650;2022-10-19T02:02:03;13.63;;;7.20;;
41297;SDS011;27381;46.032;13.650;2022-10-19T02:04:29;14.68;;;8.70;;
41297;SDS011;27381;46.032;13.650;2022-10-19T02:06:55;13.20;;;7.40;;
41297;SDS011;27381;46.032;13.650;2022-10-19T02:09:21;17.35;;;8.63;;
41297;SDS011;27381;46.032;13.650;2022-10-19T02:11:48;14.50;;;8.32;;
41297;SDS011;27381;46.032;13.650;2022-10-19T02:14:16;15.43;;;7.15;;
41297;SDS011;27381;46.032;13.650;2022-10-19T02:16:47;11.50;;;7.38;;
41297;SDS011;27381;46.032;13.650;2022-10-19T02:19:13;13.63;;;7.68;;
41297;SDS011;27381;46.032;13.650;2022-10-19T02:21:39;18.30;;;8.40;;
41297;SDS011;27381;46.032;13.650;2022-10-19T02:24:05;11.20;;;7.30;;
41297;SDS011;27381;46.032;13.650;2022-10-19T02:26:30;16.00;;;8.15;;
41297;SDS011;27381;46.032;13.650;2022-10-19T02:28:56;15.73;;;7.78;;
41297;SDS011;27381;46.032;13.650;2022-10-19T02:31:22;16.52;;;8.60;;
41297;SDS011;27381;46.032;13.650;2022-10-19T02:33:47;14.05;;;8.00;;
41297;SDS011;27381;46.032;13.650;2022-10-19T02:36:13;14.32;;;7.60;;
41297;SDS011;27381;46.032;13.650;2022-10-19T02:38:39;12.48;;;7.85;;
41297;SDS011;27381;46.032;13.650;2022-10-19T02:41:06;17.45;;;8.82;;
41297;SDS011;27381;46.032;13.650;2022-10-19T02:43:35;13.63;;;7.78;;
41297;SDS011;27381;46.032;13.650;2022-10-19T02:46:03;16.23;;;8.05;;
41297;SDS011;27381;46.032;13.650;2022-10-19T02:48:30;13.77;;;7.78;;
41297;SDS011;27381;46.032;13.650;2022-10-19T02:50:57;16.58;;;7.55;;
41297;SDS011;27381;46.032;13.650;2022-10-19T02:53:22;11.90;;;7.00;;
41297;SDS011;27381;46.032;13.650;2022-10-19T02:55:48;14.50;;;7.85;;
41297;SDS011;27381;46.032;13.650;2022-10-19T02:58:14;13.23;;;7.63;;
41297;SDS011;27381;46.032;13.650;2022-10-19T03:00:39;15.57;;;7.38;;
41297;SDS011;27381;46.032;13.650;2022-10-19T03:03:05;13.18;;;6.03;;
41297;SDS011;27381;46.032;13.650;2022-10-19T03:05:30;13.13;;;7.03;;
41297;SDS011;27381;46.032;13.650;2022-10-19T03:07:56;14.00;;;6.95;;
41297;SDS011;27381;46.032;13.650;2022-10-19T03:10:21;13.02;;;8.13;;
41297;SDS011;27381;46.032;13.650;2022-10-19T03:12:46;13.02;;;7.07;;
41297;SDS011;27381;46.032;13.650;2022-10-19T03:15:16;12.20;;;7.88;;
41297;SDS011;27381;46.032;13.650;2022-10-19T03:17:42;14.48;;;7.22;;
41297;SDS011;27381;46.032;13.650;2022-10-19T03:20:07;12.93;;;7.70;;
41297;SDS011;27381;46.032;13.650;2022-10-19T03:22:33;14.15;;;7.43;;
41297;SDS011;27381;46.032;13.650;2022-10-19T03:24:58;19.58;;;8.20;;
41297;SDS011;27381;46.032;13.650;2022-10-19T03:27:23;13.80;;;7.95;;
41297;SDS011;27381;46.032;13.650;2022-10-19T03:29:49;14.60;;;7.47;;
41297;SDS011;27381;46.032;13.650;2022-10-19T03:32:14;12.57;;;7.75;;
41297;SDS011;27381;46.032;13.650;2022-10-19T03:34:40;14.57;;;7.35;;
41297;SDS011;27381;46.032;13.650;2022-10-19T03:37:05;15.32;;;7.93;;
41297;SDS011;27381;46.032;13.650;2022-10-19T03:39:32;14.50;;;7.68;;
41297;SDS011;27381;46.032;13.650;2022-10-19T03:41:58;15.82;;;8.07;;
41297;SDS011;27381;46.032;13.650;2022-10-19T03:44:23;12.52;;;7.18;;
41297;SDS011;27381;46.032;13.650;2022-10-19T03:46:49;10.50;;;6.43;;
41297;SDS011;27381;46.032;13.650;2022-10-19T03:49:14;14.52;;;6.10;;
41297;SDS011;27381;46.032;13.650;2022-10-19T03:51:39;10.82;;;6.88;;
41297;SDS011;27381;46.032;13.650;2022-10-19T03:54:06;10.68;;;6.95;;
41297;SDS011;27381;46.032;13.650;2022-10-19T03:56:32;15.38;;;7.10;;
41297;SDS011;27381;46.032;13.650;2022-10-19T03:58:58;14.93;;;8.20;;
41297;SDS011;27381;46.032;13.650;2022-10-19T04:01:25;15.35;;;7.25;;
41297;SDS011;27381;46.032;13.650;2022-10-19T04:03:54;10.45;;;6.25;;
41297;SDS011;27381;46.032;13.650;2022-10-19T04:06:22;10.40;;;6.00;;
41297;SDS011;27381;46.032;13.650;2022-10-19T04:08:48;13.27;;;7.20;;
41297;SDS011;27381;46.032;13.650;2022-10-19T04:11:19;11.25;;;6.65;;
41297;SDS011;27381;46.032;13.650;2022-10-19T04:13:46;9.52;;;5.88;;
41297;SDS011;27381;46.032;13.650;2022-10-19T04:16:12;11.90;;;6.47;;
41297;SDS011;27381;46.032;13.650;2022-10-19T04:18:37;11.32;;;6.97;;
41297;SDS011;27381;46.032;13.650;2022-10-19T04:21:04;15.05;;;7.95;;
41297;SDS011;27381;46.032;13.650;2022-10-19T04:23:30;11.27;;;6.60;;
41297;SDS011;27381;46.032;13.650;2022-10-19T04:26:03;8.82;;;6.25;;
41297;SDS011;27381;46.032;13.650;2022-10-19T04:28:29;13.32;;;6.82;;
41297;SDS011;27381;46.032;13.650;2022-10-19T04:30:54;10.38;;;6.07;;
41297;SDS011;27381;46.032;13.650;2022-10-19T04:33:20;10.13;;;6.30;;
41297;SDS011;27381;46.032;13.650;2022-10-19T04:35:46;11.38;;;6.15;;
41297;SDS011;27381;46.032;13.650;2022-10-19T04:38:11;11.68;;;7.20;;
41297;SDS011;27381;46.032;13.650;2022-10-19T04:40:37;12.15;;;6.60;;
41297;SDS011;27381;46.032;13.650;2022-10-19T04:43:02;10.52;;;6.30;;
41297;SDS011;27381;46.032;13.650;2022-10-19T04:45:28;12.70;;;6.40;;
41297;SDS011;27381;46.032;13.650;2022-10-19T04:47:53;11.18;;;6.20;;
41297;SDS011;27381;46.032;13.650;2022-10-19T04:50:24;13.35;;;7.35;;
41297;SDS011;27381;46.032;13.650;2022-10-19T04:52:54;10.75;;;7.13;;
41297;SDS011;27381;46.032;13.650;2022-10-19T04:55:19;10.73;;;5.63;;
41297;SDS011;27381;46.032;13.650;2022-10-19T04:57:44;12.13;;;7.00;;
41297;SDS011;27381;46.032;13.650;2022-10-19T05:00:10;8.95;;;5.55;;
41297;SDS011;27381;46.032;13.650;2022-10-19T05:02:36;10.05;;;6.40;;
41297;SDS011;27381;46.032;13.650;2022-10-19T05:05:01;11.85;;;7.90;;
41297;SDS011;27381;46.032;13.650;2022-10-19T05:07:27;11.75;;;5.35;;
41297;SDS011;27381;46.032;13.650;2022-10-19T05:09:52;12.43;;;6.18;;
41297;SDS011;27381;46.032;13.650;2022-10-19T05:12:18;13.07;;;6.25;;
41297;SDS011;27381;46.032;13.650;2022-10-19T05:14:43;9.95;;;5.45;;
41297;SDS011;27381;46.032;13.650;2022-10-19T05:17:08;7.97;;;5.78;;
41297;SDS011;27381;46.032;13.650;2022-10-19T05:19:34;10.98;;;6.80;;
41297;SDS011;27381;46.032;13.650;2022-10-19T05:21:59;12.38;;;5.45;;
41297;SDS011;27381;46.032;13.650;2022-10-19T05:24:25;13.90;;;5.60;;
41297;SDS011;27381;46.032;13.650;2022-10-19T05:26:50;11.98;;;5.80;;
41297;SDS011;27381;46.032;13.650;2022-10-19T05:29:16;10.23;;;6.38;;
41297;SDS011;27381;46.032;13.650;2022-10-19T05:31:41;9.45;;;5.32;;
41297;SDS011;27381;46.032;13.650;2022-10-19T05:34:07;9.23;;;4.85;;
41297;SDS011;27381;46.032;13.650;2022-10-19T05:36:33;15.07;;;6.47;;
41297;SDS011;27381;46.032;13.650;2022-10-19T05:39:13;13.23;;;5.93;;
41297;SDS011;27381;46.032;13.650;2022-10-19T05:41:43;13.60;;;5.30;;
41297;SDS011;27381;46.032;13.650;2022-10-19T05:44:12;12.50;;;7.13;;
41297;SDS011;27381;46.032;13.650;2022-10-19T05:46:37;8.50;;;5.93;;
41297;SDS011;27381;46.032;13.650;2022-10-19T05:49:03;9.45;;;4.88;;
41297;SDS011;27381;46.032;13.650;2022-10-19T05:51:28;10.68;;;6.55;;
41297;SDS011;27381;46.032;13.650;2022-10-19T05:53:54;12.13;;;6.72;;
41297;SDS011;27381;46.032;13.650;2022-10-19T05:56:20;9.75;;;6.40;;
41297;SDS011;27381;46.032;13.650;2022-10-19T05:58:47;11.82;;;6.10;;
41297;SDS011;27381;46.032;13.650;2022-10-19T06:01:13;9.70;;;5.80;;
41297;SDS011;27381;46.032;13.650;2022-10-19T06:03:38;10.10;;;4.70;;
41297;SDS011;27381;46.032;13.650;2022-10-19T06:06:05;11.15;;;6.22;;
41297;SDS011;27381;46.032;13.650;2022-10-19T06:08:30;12.93;;;7.10;;
41297;SDS011;27381;46.032;13.650;2022-10-19T06:11:04;19.02;;;6.35;;
41297;SDS011;27381;46.032;13.650;2022-10-19T06:13:29;12.13;;;6.50;;
41297;SDS011;27381;46.032;13.650;2022-10-19T06:15:55;8.90;;;5.22;;
41297;SDS011;27381;46.032;13.650;2022-10-19T06:18:20;10.57;;;4.82;;
41297;SDS011;27381;46.032;13.650;2022-10-19T06:20:50;13.32;;;6.45;;
41297;SDS011;27381;46.032;13.650;2022-10-19T06:23:16;9.55;;;6.45;;
41297;SDS011;27381;46.032;13.650;2022-10-19T06:25:41;9.27;;;5.75;;
41297;SDS011;27381;46.032;13.650;2022-10-19T06:28:07;13.63;;;5.22;;
41297;SDS011;27381;46.032;13.650;2022-10-19T06:30:32;13.02;;;6.70;;
41297;SDS011;27381;46.032;13.650;2022-10-19T06:32:58;8.70;;;5.35;;
41297;SDS011;27381;46.032;13.650;2022-10-19T06:35:24;8.43;;;5.47;;
41297;SDS011;27381;46.032;13.650;2022-10-19T06:37:50;9.02;;;5.07;;
41297;SDS011;27381;46.032;13.650;2022-10-19T06:40:15;9.85;;;6.05;;
41297;SDS011;27381;46.032;13.650;2022-10-19T06:42:40;8.32;;;5.43;;
41297;SDS011;27381;46.032;13.650;2022-10-19T06:45:09;8.55;;;5.60;;
41297;SDS011;27381;46.032;13.650;2022-10-19T06:47:35;10.32;;;6.22;;
41297;SDS011;27381;46.032;13.650;2022-10-19T06:50:01;10.07;;;5.47;;
41297;SDS011;27381;46.032;13.650;2022-10-19T06:52:26;8.50;;;4.50;;
41297;SDS011;27381;46.032;13.650;2022-10-19T06:54:52;8.52;;;5.88;;
41297;SDS011;27381;46.032;13.650;2022-10-19T06:57:17;10.55;;;5.18;;
41297;SDS011;27381;46.032;13.650;2022-10-19T06:59:42;10.25;;;5.65;;
41297;SDS011;27381;46.032;13.650;2022-10-19T07:02:11;9.63;;;5.75;;
41297;SDS011;27381;46.032;13.650;2022-10-19T07:04:36;10.02;;;5.65;;
41297;SDS011;27381;46.032;13.650;2022-10-19T07:07:02;7.03;;;5.20;;
41297;SDS011;27381;46.032;13.650;2022-10-19T07:09:27;9.88;;;6.03;;
41297;SDS011;27381;46.032;13.650;2022-10-19T07:11:53;9.75;;;5.70;;
41297;SDS011;27381;46.032;13.650;2022-10-19T07:14:18;9.85;;;5.57;;
41297;SDS011;27381;46.032;13.650;2022-10-19T07:16:43;8.20;;;4.75;;
41297;SDS011;27381;46.032;13.650;2022-10-19T07:19:09;12.13;;;6.40;;
41297;SDS011;27381;46.032;13.650;2022-10-19T07:21:35;11.13;;;5.90;;
41297;SDS011;27381;46.032;13.650;2022-10-19T07:24:06;8.10;;;4.57;;
41297;SDS011;27381;46.032;13.650;2022-10-19T07:26:31;8.98;;;5.50;;
41297;SDS011;27381;46.032;13.650;2022-10-19T07:28:58;11.90;;;5.50;;
41297;SDS011;27381;46.032;13.650;2022-10-19T07:31:25;8.63;;;4.63;;
41297;SDS011;27381;46.032;13.650;2022-10-19T07:33:51;8.10;;;5.00;;
41297;SDS011;27381;46.032;13.650;2022-10-19T07:36:17;8.38;;;4.80;;
41297;SDS011;27381;46.032;13.650;2022-10-19T07:38:43;6.32;;;4.28;;
41297;SDS011;27381;46.032;13.650;2022-10-19T07:41:12;10.05;;;5.40;;
41297;SDS011;27381;46.032;13.650;2022-10-19T07:43:38;5.97;;;4.20;;
41297;SDS011;27381;46.032;13.650;2022-10-19T07:46:05;13.05;;;5.75;;
41297;SDS011;27381;46.032;13.650;2022-10-19T07:48:30;7.32;;;4.15;;
41297;SDS011;27381;46.032;13.650;2022-10-19T07:50:56;12.25;;;4.85;;
41297;SDS011;27381;46.032;13.650;2022-10-19T07:53:21;10.98;;;4.38;;
41297;SDS011;27381;46.032;13.650;2022-10-19T07:55:47;8.55;;;4.47;;
41297;SDS011;27381;46.032;13.650;2022-10-19T07:58:12;8.68;;;4.68;;
41297;SDS011;27381;46.032;13.650;2022-10-19T08:00:38;10.60;;;4.72;;
41297;SDS011;27381;46.032;13.650;2022-10-19T08:03:03;10.60;;;4.75;;
41297;SDS011;27381;46.032;13.650;2022-10-19T08:05:31;5.70;;;3.47;;
41297;SDS011;27381;46.032;13.650;2022-10-19T08:07:56;7.53;;;3.58;;
41297;SDS011;27381;46.032;13.650;2022-10-19T08:10:22;7.88;;;4.47;;
41297;SDS011;27381;46.032;13.650;2022-10-19T08:12:47;6.88;;;3.58;;
41297;SDS011;27381;46.032;13.650;2022-10-19T08:15:13;8.00;;;4.80;;
41297;SDS011;27381;46.032;13.650;2022-10-19T08:17:38;8.50;;;4.38;;
41297;SDS011;27381;46.032;13.650;2022-10-19T08:20:04;6.65;;;3.70;;
41297;SDS011;27381;46.032;13.650;2022-10-19T08:22:30;10.63;;;4.75;;
41297;SDS011;27381;46.032;13.650;2022-10-19T08:24:55;6.05;;;4.35;;
41297;SDS011;27381;46.032;13.650;2022-10-19T08:27:21;8.15;;;4.60;;
41297;SDS011;27381;46.032;13.650;2022-10-19T08:29:46;9.43;;;5.07;;
41297;SDS011;27381;46.032;13.650;2022-10-19T08:32:12;7.03;;;4.03;;
41297;SDS011;27381;46.032;13.650;2022-10-19T08:34:37;8.13;;;4.68;;
41297;SDS011;27381;46.032;13.650;2022-10-19T08:37:03;9.27;;;4.25;;
41297;SDS011;27381;46.032;13.650;2022-10-19T08:39:28;7.22;;;4.28;;
41297;SDS011;27381;46.032;13.650;2022-10-19T08:41:56;10.82;;;5.63;;
41297;SDS011;27381;46.032;13.650;2022-10-19T08:47:02;6.70;;;3.92;;
41297;SDS011;27381;46.032;13.650;2022-10-19T08:49:32;10.27;;;4.63;;
41297;SDS011;27381;46.032;13.650;2022-10-19T08:51:58;7.43;;;4.47;;
41297;SDS011;27381;46.032;13.650;2022-10-19T08:54:29;7.70;;;4.10;;
41297;SDS011;27381;46.032;13.650;2022-10-19T08:59:45;7.07;;;3.83;;
41297;SDS011;27381;46.032;13.650;2022-10-19T09:04:59;7.97;;;3.33;;
41297;SDS011;27381;46.032;13.650;2022-10-19T09:07:30;7.07;;;3.67;;
41297;SDS011;27381;46.032;13.650;2022-10-19T09:10:03;8.63;;;4.78;;
41297;SDS011;27381;46.032;13.650;2022-10-19T09:15:08;6.25;;;3.65;;
41297;SDS011;27381;46.032;13.650;2022-10-19T09:17:35;5.88;;;3.90;;
41297;SDS011;27381;46.032;13.650;2022-10-19T09:20:23;13.13;;;5.13;;
41297;SDS011;27381;46.032;13.650;2022-10-19T09:22:51;8.15;;;4.10;;
41297;SDS011;27381;46.032;13.650;2022-10-19T09:25:19;8.38;;;3.95;;
41297;SDS011;27381;46.032;13.650;2022-10-19T09:27:46;6.70;;;3.53;;
41297;SDS011;27381;46.032;13.650;2022-10-19T09:30:21;6.00;;;2.90;;
41297;SDS011;27381;46.032;13.650;2022-10-19T09:32:47;5.68;;;3.22;;
41297;SDS011;27381;46.032;13.650;2022-10-19T09:37:43;7.28;;;4.88;;
41297;SDS011;27381;46.032;13.650;2022-10-19T09:40:13;6.70;;;4.15;;
41297;SDS011;27381;46.032;13.650;2022-10-19T09:42:39;4.32;;;2.80;;
41297;SDS011;27381;46.032;13.650;2022-10-19T09:45:16;7.13;;;3.97;;
41297;SDS011;27381;46.032;13.650;2022-10-19T09:47:44;7.22;;;3.42;;
41297;SDS011;27381;46.032;13.650;2022-10-19T09:50:16;6.53;;;4.40;;
41297;SDS011;27381;46.032;13.650;2022-10-19T09:52:44;5.13;;;3.30;;
41297;SDS011;27381;46.032;13.650;2022-10-19T09:57:45;5.53;;;3.50;;
41297;SDS011;27381;46.032;13.650;2022-10-19T10:00:18;6.07;;;2.97;;
41297;SDS011;27381;46.032;13.650;2022-10-19T10:02:48;6.55;;;2.72;;
41297;SDS011;27381;46.032;13.650;2022-10-19T10:05:13;6.72;;;3.35;;
41297;SDS011;27381;46.032;13.650;2022-10-19T10:07:39;7.95;;;4.93;;
41297;SDS011;27381;46.032;13.650;2022-10-19T10:10:08;5.47;;;4.05;;
41297;SDS011;27381;46.032;13.650;2022-10-19T10:12:34;7.55;;;4.72;;
41297;SDS011;27381;46.032;13.650;2022-10-19T10:15:01;7.03;;;3.95;;
41297;SDS011;27381;46.032;13.650;2022-10-19T10:17:28;5.38;;;3.53;;
41297;SDS011;27381;46.032;13.650;2022-10-19T10:22:28;10.73;;;4.55;;
41297;SDS011;27381;46.032;13.650;2022-10-19T10:24:54;8.65;;;4.53;;
41297;SDS011;27381;46.032;13.650;2022-10-19T10:27:24;8.32;;;5.35;;
41297;SDS011;27381;46.032;13.650;2022-10-19T10:29:53;6.95;;;4.30;;
41297;SDS011;27381;46.032;13.650;2022-10-19T10:32:19;6.20;;;3.45;;
41297;SDS011;27381;46.032;13.650;2022-10-19T10:34:46;6.30;;;3.40;;
41297;SDS011;27381;46.032;13.650;2022-10-19T10:37:24;5.60;;;3.53;;
41297;SDS011;27381;46.032;13.650;2022-10-19T10:39:50;6.95;;;3.65;;
41297;SDS011;27381;46.032;13.650;2022-10-19T10:42:18;6.57;;;4.07;;
41297;SDS011;27381;46.032;13.650;2022-10-19T10:44:46;7.63;;;3.35;;
41297;SDS011;27381;46.032;13.650;2022-10-19T10:47:13;8.88;;;3.63;;
41297;SDS011;27381;46.032;13.650;2022-10-19T10:49:39;6.90;;;3.92;;
41297;SDS011;27381;46.032;13.650;2022-10-19T10:52:08;6.43;;;3.30;;
41297;SDS011;27381;46.032;13.650;2022-10-19T10:54:35;5.43;;;3.20;;
41297;SDS011;27381;46.032;13.650;2022-10-19T10:59:28;4.50;;;2.58;;
41297;SDS011;27381;46.032;13.650;2022-10-19T11:04:57;7.90;;;4.20;;
41297;SDS011;27381;46.032;13.650;2022-10-19T11:07:23;6.13;;;3.70;;
41297;SDS011;27381;46.032;13.650;2022-10-19T11:10:11;4.75;;;3.45;;
41297;SDS011;27381;46.032;13.650;2022-10-19T11:12:40;7.13;;;3.17;;
41297;SDS011;27381;46.032;13.650;2022-10-19T11:15:18;12.18;;;4.15;;
41297;SDS011;27381;46.032;13.650;2022-10-19T11:17:52;7.07;;;3.03;;
41297;SDS011;27381;46.032;13.650;2022-10-19T11:20:18;4.53;;;3.30;;
41297;SDS011;27381;46.032;13.650;2022-10-19T11:23:06;5.28;;;3.45;;
41297;SDS011;27381;46.032;13.650;2022-10-19T11:30:30;5.22;;;3.05;;
41297;SDS011;27381;46.032;13.650;2022-10-19T11:33:08;3.03;;;2.60;;
41297;SDS011;27381;46.032;13.650;2022-10-19T11:43:45;7.03;;;3.08;;
41297;SDS011;27381;46.032;13.650;2022-10-19T11:51:37;4.22;;;2.60;;
41297;SDS011;27381;46.032;13.650;2022-10-19T12:12:37;4.32;;;3.08;;
41297;SDS011;27381;46.032;13.650;2022-10-19T12:17:36;5.03;;;2.95;;
41297;SDS011;27381;46.032;13.650;2022-10-19T12:20:04;9.52;;;3.17;;
41297;SDS011;27381;46.032;13.650;2022-10-19T12:22:31;9.18;;;4.38;;
41297;SDS011;27381;46.032;13.650;2022-10-19T12:24:59;4.72;;;3.00;;
41297;SDS011;27381;46.032;13.650;2022-10-19T12:27:37;5.75;;;3.05;;
41297;SDS011;27381;46.032;13.650;2022-10-19T12:30:05;4.15;;;2.78;;
41297;SDS011;27381;46.032;13.650;2022-10-19T12:32:34;3.67;;;2.75;;
41297;SDS011;27381;46.032;13.650;2022-10-19T12:37:57;4.35;;;2.55;;
41297;SDS011;27381;46.032;13.650;2022-10-19T12:40:26;6.50;;;4.28;;
41297;SDS011;27381;46.032;13.650;2022-10-19T12:42:58;13.57;;;3.63;;
41297;SDS011;27381;46.032;13.650;2022-10-19T12:48:22;6.45;;;2.40;;
41297;SDS011;27381;46.032;13.650;2022-10-19T12:58:24;5.95;;;2.88;;
41297;SDS011;27381;46.032;13.650;2022-10-19T13:00:57;4.50;;;3.28;;
41297;SDS011;27381;46.032;13.650;2022-10-19T13:03:24;4.75;;;2.88;;
41297;SDS011;27381;46.032;13.650;2022-10-19T13:05:58;6.57;;;3.97;;
41297;SDS011;27381;46.032;13.650;2022-10-19T13:08:31;5.93;;;3.05;;
41297;SDS011;27381;46.032;13.650;2022-10-19T13:11:05;4.25;;;3.10;;
41297;SDS011;27381;46.032;13.650;2022-10-19T13:17:36;5.68;;;2.53;;
41297;SDS011;27381;46.032;13.650;2022-10-19T13:24:32;3.17;;;1.95;;
41297;SDS011;27381;46.032;13.650;2022-10-19T13:29:27;5.15;;;3.00;;
41297;SDS011;27381;46.032;13.650;2022-10-19T13:34:47;7.18;;;3.40;;
41297;SDS011;27381;46.032;13.650;2022-10-19T13:37:12;5.32;;;2.72;;
41297;SDS011;27381;46.032;13.650;2022-10-19T13:39:41;5.47;;;3.17;;
41297;SDS011;27381;46.032;13.650;2022-10-19T13:42:20;8.65;;;3.10;;
41297;SDS011;27381;46.032;13.650;2022-10-19T13:44:47;5.70;;;3.75;;
41297;SDS011;27381;46.032;13.650;2022-10-19T14:10:16;3.72;;;2.28;;
41297;SDS011;27381;46.032;13.650;2022-10-19T14:12:43;4.05;;;2.67;;
41297;SDS011;27381;46.032;13.650;2022-10-19T14:17:40;11.43;;;4.93;;
41297;SDS011;27381;46.032;13.650;2022-10-19T14:20:26;4.78;;;2.33;;
41297;SDS011;27381;46.032;13.650;2022-10-19T14:22:53;7.43;;;2.10;;
41297;SDS011;27381;46.032;13.650;2022-10-19T14:25:20;4.53;;;2.60;;
41297;SDS011;27381;46.032;13.650;2022-10-19T14:27:46;4.70;;;3.38;;
41297;SDS011;27381;46.032;13.650;2022-10-19T14:30:22;4.38;;;2.50;;
41297;SDS011;27381;46.032;13.650;2022-10-19T14:32:49;7.25;;;3.03;;
41297;SDS011;27381;46.032;13.650;2022-10-19T14:35:19;4.90;;;3.00;;
41297;SDS011;27381;46.032;13.650;2022-10-19T14:37:48;3.70;;;2.38;;
41297;SDS011;27381;46.032;13.650;2022-10-19T14:40:31;5.28;;;3.10;;
41297;SDS011;27381;46.032;13.650;2022-10-19T14:42:57;10.35;;;4.30;;
41297;SDS011;27381;46.032;13.650;2022-10-19T14:45:25;3.08;;;2.15;;
41297;SDS011;27381;46.032;13.650;2022-10-19T14:47:52;4.22;;;2.10;;
41297;SDS011;27381;46.032;13.650;2022-10-19T14:50:18;3.70;;;2.55;;
41297;SDS011;27381;46.032;13.650;2022-10-19T14:52:45;3.88;;;2.45;;
41297;SDS011;27381;46.032;13.650;2022-10-19T14:55:13;4.60;;;2.70;;
41297;SDS011;27381;46.032;13.650;2022-10-19T14:57:40;3.65;;;2.10;;
41297;SDS011;27381;46.032;13.650;2022-10-19T15:00:12;5.07;;;3.03;;
41297;SDS011;27381;46.032;13.650;2022-10-19T15:02:40;5.22;;;2.83;;
41297;SDS011;27381;46.032;13.650;2022-10-19T15:05:17;6.45;;;2.83;;
41297;SDS011;27381;46.032;13.650;2022-10-19T15:07:44;6.20;;;2.75;;
41297;SDS011;27381;46.032;13.650;2022-10-19T15:10:17;33.05;;;3.75;;
41297;SDS011;27381;46.032;13.650;2022-10-19T15:12:44;5.82;;;2.65;;
41297;SDS011;27381;46.032;13.650;2022-10-19T15:15:12;4.43;;;3.03;;
41297;SDS011;27381;46.032;13.650;2022-10-19T15:17:53;3.75;;;2.25;;
41297;SDS011;27381;46.032;13.650;2022-10-19T15:20:23;4.88;;;2.90;;
41297;SDS011;27381;46.032;13.650;2022-10-19T15:22:49;8.65;;;2.83;;
41297;SDS011;27381;46.032;13.650;2022-10-19T15:27:52;4.47;;;2.97;;
41297;SDS011;27381;46.032;13.650;2022-10-19T15:32:46;9.35;;;2.53;;
41297;SDS011;27381;46.032;13.650;2022-10-19T15:37:44;4.50;;;2.50;;
41297;SDS011;27381;46.032;13.650;2022-10-19T15:40:22;5.07;;;3.20;;
41297;SDS011;27381;46.032;13.650;2022-10-19T15:42:50;12.82;;;3.45;;
41297;SDS011;27381;46.032;13.650;2022-10-19T15:45:34;5.75;;;4.55;;
41297;SDS011;27381;46.032;13.650;2022-10-19T15:50:41;8.02;;;3.08;;
41297;SDS011;27381;46.032;13.650;2022-10-19T15:53:07;6.72;;;4.30;;
41297;SDS011;27381;46.032;13.650;2022-10-19T15:55:33;5.50;;;3.58;;
41297;SDS011;27381;46.032;13.650;2022-10-19T15:57:58;6.00;;;3.22;;
41297;SDS011;27381;46.032;13.650;2022-10-19T16:00:24;5.93;;;3.40;;
41297;SDS011;27381;46.032;13.650;2022-10-19T16:02:50;16.73;;;3.60;;
41297;SDS011;27381;46.032;13.650;2022-10-19T16:05:15;5.00;;;2.88;;
41297;SDS011;27381;46.032;13.650;2022-10-19T16:07:41;7.97;;;4.07;;
41297;SDS011;27381;46.032;13.650;2022-10-19T16:10:07;14.80;;;3.90;;
41297;SDS011;27381;46.032;13.650;2022-10-19T16:12:33;6.57;;;3.78;;
41297;SDS011;27381;46.032;13.650;2022-10-19T16:14:58;6.68;;;4.07;;
41297;SDS011;27381;46.032;13.650;2022-10-19T16:17:24;6.80;;;4.45;;
41297;SDS011;27381;46.032;13.650;2022-10-19T16:19:49;8.23;;;4.78;;
41297;SDS011;27381;46.032;13.650;2022-10-19T16:22:15;12.93;;;5.15;;
41297;SDS011;27381;46.032;13.650;2022-10-19T16:24:41;12.95;;;4.68;;
41297;SDS011;27381;46.032;13.650;2022-10-19T16:27:06;8.50;;;4.43;;
41297;SDS011;27381;46.032;13.650;2022-10-19T16:29:32;9.48;;;4.75;;
41297;SDS011;27381;46.032;13.650;2022-10-19T16:31:58;6.55;;;4.35;;
41297;SDS011;27381;46.032;13.650;2022-10-19T16:34:23;11.95;;;5.47;;
41297;SDS011;27381;46.032;13.650;2022-10-19T16:36:49;8.73;;;4.78;;
41297;SDS011;27381;46.032;13.650;2022-10-19T16:39:15;6.78;;;4.45;;
41297;SDS011;27381;46.032;13.650;2022-10-19T16:41:40;12.38;;;5.35;;
41297;SDS011;27381;46.032;13.650;2022-10-19T16:44:05;7.10;;;4.20;;
41297;SDS011;27381;46.032;13.650;2022-10-19T16:46:31;9.43;;;5.75;;
41297;SDS011;27381;46.032;13.650;2022-10-19T16:48:56;10.52;;;5.55;;
41297;SDS011;27381;46.032;13.650;2022-10-19T16:53:52;7.82;;;4.80;;
41297;SDS011;27381;46.032;13.650;2022-10-19T16:56:18;9.75;;;4.25;;
41297;SDS011;27381;46.032;13.650;2022-10-19T16:58:44;8.32;;;5.30;;
41297;SDS011;27381;46.032;13.650;2022-10-19T17:01:10;6.60;;;4.60;;
41297;SDS011;27381;46.032;13.650;2022-10-19T17:03:36;7.90;;;4.85;;